Weather at Mustang Beach Airport

Public forecast

Using degrees Fahrenheit for public forecast. Weather courtesy of forecast.io.

Current aviation weather report (METAR) for Mustang Beach Airport

2024/06/19 19:35 (retrieved 20 minutes ago)

KRAS 191935Z AUTO 06017G29KT 1 1/4SM +RA BR SCT005 BKN010 OVC014 27/25 A2980 RMK AO2 P0027 T02670253

Closest aviation forecast (TAF) to Mustang Beach Airport

Forecast is more than 12 hours old.

Closest forecast is Naval Air Station Corpus Christi Truax Field, 12.9 nm (23.9 km) WSW.

2024/06/18 17:51 Ammendment (retrieved 1 day ago)

TAF AMD KNGP 1817/1915 10018G26KT 9999 VCSH FEW025 BKN050 BKN100 BKN250 510005 QNH2976INS TEMPO 1817/1818 09014G20KT FM181800 08020G28KT 9999 VCTS SCT030CB BKN080 BKN250 510005 QNH2970INS TEMPO 1818/1821 10015G22KT 6000 TSRA BKN025CB BKN040 BKN080 OVC250 TEMPO 1821/1901 4800 +TSRA BKN025CB OVC040 FM190100 07024G32KT 8000 -SHRA VCTS BKN018CB OVC035 611608 510008 QNH2972INS FM190600 05030G40KT 4800 SHRA VCTS OVC015CB 611608 540008 QNH2971INS TEMPO 1906/1909 1600 +SHRA BR OVC012CB FM190900 05030G40KT 3200 +SHRA VCTS OVC012CB 611608 540008 QNH2969INS FM191100 05035G45KT 2400 +SHRA VCTS SCT008 OVC012CB 611608 540008 QNH2971INS TX32/1820Z TN26/1912Z AMD 1740 FN20044